createdAt,value
2022-10-19T00:01:21.551Z,8.51
2022-10-19T00:03:54.467Z,8.37
2022-10-19T00:06:28.226Z,8.43
2022-10-19T00:08:59.349Z,8.30
2022-10-19T00:11:30.186Z,8.08
2022-10-19T00:14:00.331Z,8.41
2022-10-19T00:16:34.923Z,8.41
2022-10-19T00:19:08.453Z,8.38
2022-10-19T00:21:40.129Z,8.32
2022-10-19T00:24:09.964Z,8.31
2022-10-19T00:26:38.574Z,8.35
2022-10-19T00:29:09.438Z,8.34
2022-10-19T00:31:38.257Z,8.41
2022-10-19T00:34:08.318Z,8.44
2022-10-19T00:36:41.139Z,8.45
2022-10-19T00:39:16.516Z,8.47
2022-10-19T00:41:48.296Z,8.43
2022-10-19T00:44:17.133Z,8.42
2022-10-19T00:46:49.651Z,8.43
2022-10-19T00:49:34.750Z,8.27
2022-10-19T00:52:07.921Z,8.40
2022-10-19T00:54:40.003Z,8.33
2022-10-19T00:57:10.131Z,8.44
2022-10-19T00:59:41.157Z,8.41
2022-10-19T01:02:13.795Z,8.37
2022-10-19T01:04:49.724Z,8.41
2022-10-19T01:07:19.798Z,8.32
2022-10-19T01:09:49.679Z,8.42
2022-10-19T01:12:47.355Z,8.53
2022-10-19T01:15:17.326Z,8.46
2022-10-19T01:18:09.847Z,8.34
2022-10-19T01:20:48.848Z,8.39
2022-10-19T01:23:21.869Z,8.43
2022-10-19T01:26:10.256Z,8.43
2022-10-19T01:28:49.062Z,8.49
2022-10-19T01:31:39.535Z,8.55
2022-10-19T01:34:50.148Z,8.55
2022-10-19T01:37:26.089Z,8.75
2022-10-19T01:40:16.650Z,8.84
2022-10-19T01:43:09.222Z,9.05
2022-10-19T01:45:58.867Z,9.28
2022-10-19T01:48:32.583Z,9.34
2022-10-19T01:51:20.769Z,9.50
2022-10-19T01:53:55.207Z,9.66
2022-10-19T01:56:30.079Z,9.91
2022-10-19T01:59:03.038Z,10.18
2022-10-19T02:01:38.137Z,10.51
2022-10-19T02:04:08.488Z,10.67
2022-10-19T02:06:38.864Z,11.02
2022-10-19T02:09:09.352Z,11.35
2022-10-19T02:11:41.834Z,11.65
2022-10-19T02:14:17.671Z,11.87
2022-10-19T02:17:16.568Z,12.17
2022-10-19T02:19:46.572Z,12.39
2022-10-19T02:22:15.612Z,12.76
2022-10-19T02:24:45.477Z,12.94
2022-10-19T02:27:16.195Z,13.24
2022-10-19T02:29:46.353Z,13.54
2022-10-19T02:32:16.577Z,13.65
2022-10-19T02:34:46.505Z,13.86
2022-10-19T02:37:15.649Z,13.94
2022-10-19T02:39:45.806Z,14.23
2022-10-19T02:42:40.671Z,14.54
2022-10-19T02:45:22.495Z,15.00
2022-10-19T02:47:56.429Z,15.10
2022-10-19T02:50:27.082Z,15.16
2022-10-19T02:52:56.915Z,15.51
2022-10-19T02:55:26.971Z,15.80
2022-10-19T02:57:56.409Z,15.79
2022-10-19T03:00:28.823Z,16.14
2022-10-19T03:02:59.071Z,15.91
2022-10-19T03:05:31.458Z,15.95
2022-10-19T03:08:02.102Z,16.50
2022-10-19T03:10:32.216Z,16.81
2022-10-19T03:13:02.680Z,16.73
2022-10-19T03:15:32.835Z,17.05
2022-10-19T03:18:02.679Z,16.78
2022-10-19T03:20:33.467Z,17.04
2022-10-19T03:23:03.741Z,17.15
2022-10-19T03:25:32.768Z,17.28
2022-10-19T03:28:02.651Z,17.66
2022-10-19T03:30:33.327Z,17.57
2022-10-19T03:33:03.569Z,18.01
2022-10-19T03:35:36.763Z,17.92
2022-10-19T03:38:06.904Z,17.75
2022-10-19T03:40:36.342Z,17.49
2022-10-19T03:43:06.414Z,17.76
2022-10-19T03:45:36.720Z,17.38
2022-10-19T03:48:09.472Z,17.81
2022-10-19T03:50:38.503Z,17.32
2022-10-19T03:53:08.738Z,17.26
2022-10-19T03:55:38.858Z,17.11
2022-10-19T03:58:08.913Z,17.16
2022-10-19T04:00:38.259Z,16.86
2022-10-19T04:03:08.172Z,16.54
2022-10-19T04:05:38.608Z,17.18
2022-10-19T04:08:09.402Z,16.76
2022-10-19T04:10:45.755Z,16.92
2022-10-19T04:13:15.914Z,16.63
2022-10-19T04:15:46.493Z,16.47
2022-10-19T04:18:20.115Z,16.44
2022-10-19T04:20:50.418Z,16.54
2022-10-19T04:23:20.929Z,16.29
2022-10-19T04:25:51.194Z,16.48
2022-10-19T04:28:20.181Z,16.71
2022-10-19T04:30:52.949Z,16.74
2022-10-19T04:33:23.386Z,16.93
2022-10-19T04:35:59.918Z,16.92
2022-10-19T04:38:31.697Z,17.04
2022-10-19T04:41:06.644Z,17.02
2022-10-19T04:43:37.075Z,16.94
2022-10-19T04:46:19.416Z,17.39
2022-10-19T04:48:50.993Z,17.54
2022-10-19T04:51:24.841Z,17.58
2022-10-19T04:53:57.002Z,17.68
2022-10-19T04:56:33.594Z,17.79
2022-10-19T04:59:04.413Z,17.97
2022-10-19T05:01:34.904Z,18.02
2022-10-19T05:04:05.678Z,18.39
2022-10-19T05:06:35.978Z,18.58
2022-10-19T05:09:09.476Z,18.88
2022-10-19T05:11:39.825Z,19.06
2022-10-19T05:14:11.031Z,19.38
2022-10-19T05:16:41.137Z,19.79
2022-10-19T05:19:16.721Z,20.43
2022-10-19T05:21:45.943Z,20.38
2022-10-19T05:24:15.942Z,20.46
2022-10-19T05:26:46.094Z,21.22
2022-10-19T05:29:16.872Z,20.88
2022-10-19T05:31:46.102Z,21.20
2022-10-19T05:34:15.323Z,22.02
2022-10-19T05:36:45.804Z,21.96
2022-10-19T05:39:27.277Z,21.72
2022-10-19T05:41:57.657Z,21.35
2022-10-19T05:44:27.847Z,21.46
2022-10-19T05:46:58.268Z,21.63
2022-10-19T05:49:31.419Z,22.22
2022-10-19T05:52:01.476Z,20.80
2022-10-19T05:54:30.562Z,19.40
2022-10-19T05:56:59.453Z,19.30
2022-10-19T05:59:29.543Z,20.58
2022-10-19T06:02:00.539Z,20.10
2022-10-19T06:04:30.667Z,19.72
2022-10-19T06:07:00.528Z,21.01
2022-10-19T06:09:33.516Z,21.54
2022-10-19T06:12:17.917Z,22.40
2022-10-19T06:14:52.869Z,22.32
2022-10-19T06:17:25.903Z,22.85
2022-10-19T06:19:56.281Z,23.09
2022-10-19T06:22:26.399Z,22.81
2022-10-19T06:24:55.385Z,21.63
2022-10-19T06:27:25.423Z,22.48
2022-10-19T06:29:56.025Z,22.87
2022-10-19T06:32:28.771Z,22.15
2022-10-19T06:34:59.270Z,23.23
2022-10-19T06:37:29.311Z,23.27
2022-10-19T06:40:06.917Z,23.08
2022-10-19T06:42:44.417Z,23.56
2022-10-19T06:45:16.813Z,23.57
2022-10-19T06:50:23.764Z,23.58
2022-10-19T06:52:59.877Z,24.12
2022-10-19T06:55:33.376Z,23.62
2022-10-19T06:58:03.082Z,24.13
2022-10-19T07:00:33.773Z,23.84
2022-10-19T07:03:02.983Z,24.09
2022-10-19T07:05:32.846Z,24.33
2022-10-19T07:08:03.032Z,24.52
2022-10-19T07:10:35.912Z,22.45
2022-10-19T07:13:06.360Z,22.24
2022-10-19T07:15:39.807Z,21.92
2022-10-19T07:18:09.805Z,23.42
2022-10-19T07:20:38.479Z,23.45
2022-10-19T07:23:07.801Z,23.54
2022-10-19T07:25:38.743Z,24.04
2022-10-19T07:28:07.697Z,24.47
2022-10-19T07:30:39.805Z,22.70
2022-10-19T07:33:08.567Z,22.11
2022-10-19T07:35:38.182Z,21.84
2022-10-19T07:38:07.156Z,22.17
2022-10-19T07:40:36.840Z,23.14
2022-10-19T07:43:06.466Z,23.38
2022-10-19T07:45:35.098Z,21.45
2022-10-19T07:48:03.934Z,21.50
2022-10-19T07:50:32.746Z,21.87
2022-10-19T07:53:03.640Z,20.59
2022-10-19T07:55:35.431Z,19.69
2022-10-19T07:58:04.129Z,19.70
2022-10-19T08:00:32.706Z,21.51
2022-10-19T08:03:31.681Z,21.07
2022-10-19T08:05:50.643Z,19.83
2022-10-19T08:08:19.357Z,20.19
2022-10-19T08:10:48.140Z,19.17
2022-10-19T08:13:17.386Z,18.94
2022-10-19T08:15:46.296Z,19.85
2022-10-19T08:18:14.978Z,19.00
2022-10-19T08:20:45.124Z,19.75
2022-10-19T08:23:13.658Z,20.48
2022-10-19T08:25:42.259Z,18.90
2022-10-19T08:28:11.295Z,21.05
2022-10-19T08:30:39.996Z,22.01
2022-10-19T08:33:09.300Z,20.35
2022-10-19T08:35:38.672Z,21.61
2022-10-19T08:38:07.329Z,22.04
2022-10-19T08:40:36.742Z,22.78
2022-10-19T08:43:17.146Z,23.26
2022-10-19T08:46:24.268Z,22.46
2022-10-19T08:48:54.041Z,22.74
2022-10-19T08:51:22.691Z,21.25
2022-10-19T08:53:58.652Z,22.20
2022-10-19T08:57:09.549Z,22.14
2022-10-19T09:00:08.307Z,20.82
2022-10-19T09:03:04.350Z,19.38
2022-10-19T09:05:43.556Z,19.93
2022-10-19T09:08:17.735Z,19.87
2022-10-19T09:10:51.111Z,18.60
2022-10-19T09:14:03.847Z,19.04
2022-10-19T09:16:32.181Z,18.79
2022-10-19T09:19:00.732Z,19.25
2022-10-19T09:21:48.195Z,20.37
2022-10-19T09:24:45.483Z,20.73
2022-10-19T09:27:32.502Z,20.02
2022-10-19T09:30:07.728Z,19.06
2022-10-19T09:32:39.743Z,18.76
2022-10-19T09:35:36.655Z,19.70
2022-10-19T09:38:08.738Z,19.94
2022-10-19T09:40:37.682Z,20.09
2022-10-19T09:43:20.979Z,19.81
2022-10-19T09:46:21.488Z,19.01
2022-10-19T09:48:53.223Z,19.85
2022-10-19T09:51:24.589Z,19.66
2022-10-19T09:53:56.003Z,18.54
2022-10-19T09:56:27.759Z,19.38
2022-10-19T09:58:59.161Z,20.41
2022-10-19T10:01:41.613Z,19.96
2022-10-19T10:04:19.924Z,20.25
2022-10-19T10:06:49.630Z,20.16
2022-10-19T10:09:27.529Z,20.06
2022-10-19T10:12:00.408Z,19.17
2022-10-19T10:14:35.863Z,19.56
2022-10-19T10:17:13.385Z,20.06
2022-10-19T10:19:53.182Z,19.92
2022-10-19T10:22:58.191Z,19.30
2022-10-19T10:25:33.743Z,20.18
2022-10-19T10:28:22.616Z,20.43
2022-10-19T10:31:06.091Z,20.31
2022-10-19T10:33:46.252Z,20.31
2022-10-19T10:36:15.556Z,20.03
2022-10-19T10:38:53.093Z,19.24
2022-10-19T10:41:25.058Z,19.54
2022-10-19T10:44:05.254Z,19.18
2022-10-19T10:46:38.024Z,19.60
2022-10-19T10:49:09.074Z,18.96
2022-10-19T10:51:50.735Z,19.43
2022-10-19T10:54:22.660Z,19.30
2022-10-19T10:57:06.615Z,19.21
2022-10-19T10:59:52.659Z,19.27
2022-10-19T11:02:33.780Z,19.03
2022-10-19T11:05:30.654Z,17.70
2022-10-19T11:08:06.482Z,17.10
2022-10-19T11:10:40.822Z,16.85
2022-10-19T11:13:13.109Z,16.48
2022-10-19T11:15:54.293Z,16.47
2022-10-19T11:18:52.020Z,16.28
2022-10-19T11:21:51.694Z,16.29
2022-10-19T11:24:48.856Z,16.33
2022-10-19T11:27:59.228Z,16.08
2022-10-19T11:30:28.577Z,15.51
2022-10-19T11:33:06.843Z,15.47
2022-10-19T11:35:40.420Z,15.12
2022-10-19T11:38:29.636Z,15.20
2022-10-19T11:41:18.282Z,14.92
2022-10-19T11:43:56.402Z,14.74
2022-10-19T11:46:25.154Z,14.45
2022-10-19T11:49:11.053Z,14.05
2022-10-19T11:52:00.980Z,13.95
2022-10-19T11:54:59.400Z,13.89
2022-10-19T11:58:04.182Z,13.74
2022-10-19T12:00:48.663Z,13.46
2022-10-19T12:03:27.849Z,13.37
2022-10-19T12:06:17.594Z,13.28
2022-10-19T12:09:00.859Z,13.07
2022-10-19T12:11:50.968Z,12.90
2022-10-19T12:14:26.545Z,12.69
2022-10-19T12:17:01.182Z,12.58
2022-10-19T12:19:43.860Z,12.41
2022-10-19T12:22:21.394Z,12.35
2022-10-19T12:24:52.737Z,11.98
2022-10-19T12:27:31.928Z,12.01
2022-10-19T12:30:10.338Z,11.89
2022-10-19T12:32:53.466Z,11.56
2022-10-19T12:36:16.222Z,11.70
2022-10-19T12:38:50.814Z,11.50
2022-10-19T12:41:38.478Z,11.36
2022-10-19T12:44:16.060Z,11.27
2022-10-19T12:46:53.016Z,11.20
2022-10-19T12:49:37.388Z,11.11
2022-10-19T12:52:11.994Z,10.93
2022-10-19T12:54:43.706Z,10.57
2022-10-19T12:57:28.937Z,10.90
2022-10-19T13:00:08.310Z,10.84
2022-10-19T13:02:40.141Z,10.86
2022-10-19T13:05:09.410Z,10.74
2022-10-19T13:07:38.713Z,10.76
2022-10-19T13:10:21.232Z,10.77
2022-10-19T13:12:50.801Z,10.86
2022-10-19T13:15:35.772Z,10.85
2022-10-19T13:18:12.823Z,10.87
2022-10-19T13:20:42.346Z,10.87
2022-10-19T13:23:11.009Z,10.92
2022-10-19T13:25:41.150Z,10.84
2022-10-19T13:28:18.676Z,10.96
2022-10-19T13:30:48.262Z,11.00
2022-10-19T13:33:35.865Z,10.87
2022-10-19T13:36:12.291Z,10.90
2022-10-19T13:39:06.916Z,10.87
2022-10-19T13:41:36.102Z,10.87
2022-10-19T13:44:07.742Z,10.92
2022-10-19T13:47:13.560Z,10.71
2022-10-19T13:49:57.320Z,10.93
2022-10-19T13:52:46.367Z,10.77
2022-10-19T13:55:52.653Z,10.65
2022-10-19T13:58:43.381Z,10.71
2022-10-19T14:01:23.781Z,10.70
2022-10-19T14:04:16.578Z,10.54
2022-10-19T14:06:54.585Z,10.76
2022-10-19T14:09:37.920Z,10.69
2022-10-19T14:12:29.769Z,10.79
2022-10-19T14:14:59.257Z,10.59
2022-10-19T14:17:34.812Z,10.80
2022-10-19T14:20:05.119Z,10.69
2022-10-19T14:22:35.033Z,10.84
2022-10-19T14:25:07.018Z,10.79
2022-10-19T14:27:36.690Z,10.77
2022-10-19T14:30:06.717Z,10.58
2022-10-19T14:32:36.614Z,10.85
2022-10-19T14:35:19.081Z,10.74
2022-10-19T14:37:48.850Z,10.72
2022-10-19T14:40:28.909Z,10.92
2022-10-19T14:43:00.743Z,10.93
2022-10-19T14:45:34.111Z,10.91
2022-10-19T14:48:06.325Z,10.94
2022-10-19T14:53:31.909Z,11.01
2022-10-19T14:56:08.070Z,10.98
2022-10-19T14:58:55.569Z,11.00
2022-10-19T15:01:24.657Z,10.90
2022-10-19T15:03:54.110Z,11.12
2022-10-19T15:06:31.865Z,11.25
2022-10-19T15:09:15.379Z,11.25
2022-10-19T15:11:55.257Z,11.31
2022-10-19T15:14:29.641Z,11.41
2022-10-19T15:17:03.845Z,11.23
2022-10-19T15:19:39.958Z,10.80
2022-10-19T15:22:32.422Z,10.75
2022-10-19T15:25:07.301Z,10.65
2022-10-19T15:27:38.931Z,10.43
2022-10-19T15:30:32.753Z,10.74
2022-10-19T15:33:02.794Z,10.67
2022-10-19T15:35:34.990Z,10.73
2022-10-19T15:38:28.266Z,10.71
2022-10-19T15:41:05.847Z,10.54
2022-10-19T15:43:56.061Z,10.47
2022-10-19T15:46:35.531Z,10.62
2022-10-19T15:49:19.371Z,10.56
2022-10-19T15:51:50.428Z,10.19
2022-10-19T15:54:20.505Z,10.24
2022-10-19T15:56:54.262Z,10.32
2022-10-19T15:59:24.971Z,10.41
2022-10-19T16:01:56.135Z,10.45
2022-10-19T16:04:25.674Z,10.72
2022-10-19T16:06:54.540Z,10.61
2022-10-19T16:09:23.669Z,10.40
2022-10-19T16:11:57.602Z,10.26
2022-10-19T16:14:33.050Z,10.28
2022-10-19T16:17:06.162Z,10.40
2022-10-19T16:19:34.939Z,10.25
2022-10-19T16:22:03.962Z,10.16
2022-10-19T16:24:33.289Z,9.92
2022-10-19T16:27:02.648Z,9.97
2022-10-19T16:29:31.446Z,10.02
2022-10-19T16:32:00.959Z,9.89
2022-10-19T16:34:29.789Z,9.69
2022-10-19T16:37:02.594Z,9.66
2022-10-19T16:39:34.993Z,9.73
2022-10-19T16:42:03.663Z,9.67
2022-10-19T16:44:35.343Z,9.78
2022-10-19T16:47:05.943Z,9.72
2022-10-19T16:49:34.979Z,9.65
2022-10-19T16:52:03.759Z,9.78
2022-10-19T16:54:33.923Z,9.54
2022-10-19T16:57:07.127Z,9.55
2022-10-19T16:59:38.904Z,9.82
2022-10-19T17:02:08.253Z,9.62
2022-10-19T17:04:37.785Z,9.79
2022-10-19T17:07:08.788Z,9.70
2022-10-19T17:09:41.752Z,9.97
2022-10-19T17:12:11.744Z,10.10
2022-10-19T17:14:42.458Z,10.13
2022-10-19T17:17:13.541Z,10.13
2022-10-19T17:19:43.363Z,10.21
2022-10-19T17:22:12.076Z,10.25
2022-10-19T17:24:41.944Z,10.33
2022-10-19T17:27:11.122Z,10.20
2022-10-19T17:29:40.096Z,10.47
2022-10-19T17:32:09.984Z,10.80
2022-10-19T17:34:39.020Z,10.68
2022-10-19T17:37:08.333Z,10.47
2022-10-19T17:39:37.762Z,10.13
2022-10-19T17:42:06.627Z,10.44
2022-10-19T17:44:35.821Z,10.43
2022-10-19T17:47:04.976Z,10.63
2022-10-19T17:49:34.033Z,10.48
2022-10-19T17:52:02.834Z,10.37
2022-10-19T17:54:39.614Z,10.05
2022-10-19T17:57:17.656Z,10.00
2022-10-19T17:59:52.797Z,10.00
2022-10-19T18:02:22.524Z,9.71
2022-10-19T18:04:51.825Z,9.41
2022-10-19T18:07:23.132Z,9.06
2022-10-19T18:09:52.118Z,9.03
2022-10-19T18:12:20.821Z,8.53
2022-10-19T18:14:49.776Z,8.37
2022-10-19T18:17:18.500Z,8.02
2022-10-19T18:19:47.711Z,7.72
2022-10-19T18:22:16.903Z,7.59
2022-10-19T18:24:46.105Z,7.28
2022-10-19T18:27:14.986Z,6.96
2022-10-19T18:29:44.030Z,7.07
2022-10-19T18:32:14.753Z,6.87
2022-10-19T18:34:44.502Z,6.77
2022-10-19T18:37:13.223Z,6.65
2022-10-19T18:39:42.885Z,6.56
2022-10-19T18:42:13.621Z,6.44
2022-10-19T18:44:43.071Z,6.44
2022-10-19T18:47:13.198Z,6.35
2022-10-19T18:49:42.151Z,6.29
2022-10-19T18:52:10.814Z,6.25
2022-10-19T18:54:40.109Z,6.12
2022-10-19T18:57:08.786Z,5.91
2022-10-19T18:59:38.538Z,6.01
2022-10-19T19:02:13.645Z,5.81
2022-10-19T19:04:52.043Z,5.75
2022-10-19T19:07:21.181Z,5.90
2022-10-19T19:09:52.444Z,5.96
2022-10-19T19:12:23.854Z,5.75
2022-10-19T19:14:52.902Z,5.81
2022-10-19T19:17:21.831Z,5.82
2022-10-19T19:19:50.723Z,5.75
2022-10-19T19:22:19.413Z,5.74
2022-10-19T19:24:51.363Z,5.79
2022-10-19T19:27:26.161Z,5.65
2022-10-19T19:29:59.998Z,5.49
2022-10-19T19:32:28.975Z,5.39
2022-10-19T19:34:57.694Z,5.71
2022-10-19T19:37:27.088Z,5.65
2022-10-19T19:39:55.769Z,5.55
2022-10-19T19:42:27.781Z,5.61
2022-10-19T19:44:57.437Z,5.92
2022-10-19T19:47:26.211Z,5.73
2022-10-19T19:49:55.103Z,5.83
2022-10-19T19:52:24.160Z,5.81
2022-10-19T19:54:53.878Z,5.92
2022-10-19T19:57:23.441Z,5.78
2022-10-19T19:59:52.841Z,5.81
2022-10-19T20:02:22.175Z,5.70
2022-10-19T20:04:51.563Z,5.78
2022-10-19T20:07:20.353Z,5.89
2022-10-19T20:09:49.787Z,5.72
2022-10-19T20:12:18.886Z,5.78
2022-10-19T20:14:47.794Z,5.87
2022-10-19T20:17:17.753Z,5.95
2022-10-19T20:19:47.119Z,5.92
2022-10-19T20:22:17.194Z,5.71
2022-10-19T20:24:47.244Z,5.79
2022-10-19T20:27:15.994Z,5.86
2022-10-19T20:29:45.615Z,5.66
2022-10-19T20:32:14.361Z,5.56
2022-10-19T20:34:43.417Z,5.73
2022-10-19T20:37:12.309Z,5.73
2022-10-19T20:39:41.324Z,5.53
2022-10-19T20:42:09.989Z,5.62
2022-10-19T20:44:39.810Z,5.52
2022-10-19T20:47:08.581Z,5.57
2022-10-19T20:49:37.914Z,5.58
2022-10-19T20:52:06.673Z,5.29
2022-10-19T20:54:36.755Z,5.20
2022-10-19T20:57:05.455Z,5.36
2022-10-19T20:59:34.401Z,5.30
2022-10-19T21:02:03.326Z,5.28
2022-10-19T21:04:32.233Z,5.22
2022-10-19T21:07:02.001Z,5.29
2022-10-19T21:09:31.035Z,5.06
2022-10-19T21:12:00.108Z,5.30
2022-10-19T21:14:30.931Z,5.27
2022-10-19T21:17:00.924Z,5.13
2022-10-19T21:19:31.817Z,5.28
2022-10-19T21:22:03.082Z,5.21
2022-10-19T21:24:35.070Z,5.34
2022-10-19T21:27:06.806Z,5.32
2022-10-19T21:29:37.169Z,5.29
2022-10-19T21:32:08.519Z,5.25
2022-10-19T21:34:37.757Z,5.37
2022-10-19T21:37:06.418Z,5.09
2022-10-19T21:39:35.296Z,5.26
2022-10-19T21:42:04.109Z,5.20
2022-10-19T21:44:33.766Z,5.31
2022-10-19T21:47:02.582Z,5.21
2022-10-19T21:49:31.519Z,5.12
2022-10-19T21:52:00.247Z,5.13
2022-10-19T21:54:30.251Z,4.82
2022-10-19T21:57:01.346Z,4.98
2022-10-19T21:59:30.517Z,5.01
2022-10-19T22:02:00.657Z,5.09
2022-10-19T22:04:30.886Z,4.88
2022-10-19T22:07:01.516Z,4.81
2022-10-19T22:09:30.489Z,4.95
2022-10-19T22:11:59.445Z,5.07
2022-10-19T22:14:28.588Z,4.94
2022-10-19T22:16:57.430Z,4.79
2022-10-19T22:19:27.242Z,5.02
2022-10-19T22:21:56.056Z,5.03
2022-10-19T22:24:24.895Z,5.04
2022-10-19T22:26:53.972Z,5.12
2022-10-19T22:29:23.777Z,5.05
2022-10-19T22:31:52.513Z,4.77
2022-10-19T22:34:21.875Z,4.84
2022-10-19T22:36:50.646Z,4.87
2022-10-19T22:39:19.684Z,4.64
2022-10-19T22:41:48.568Z,4.93
2022-10-19T22:44:17.424Z,5.01
2022-10-19T22:46:46.101Z,4.90
2022-10-19T22:49:15.114Z,4.85
2022-10-19T22:51:44.171Z,4.66
2022-10-19T22:54:13.137Z,4.48
2022-10-19T22:56:42.302Z,4.53
2022-10-19T22:59:11.546Z,4.66
2022-10-19T23:01:40.325Z,4.74
2022-10-19T23:04:09.407Z,4.83
2022-10-19T23:06:38.319Z,4.85
2022-10-19T23:09:09.629Z,4.75
2022-10-19T23:11:38.469Z,4.80
2022-10-19T23:14:07.138Z,4.89
2022-10-19T23:16:36.239Z,5.07
2022-10-19T23:19:05.390Z,5.11
2022-10-19T23:21:37.321Z,5.07
2022-10-19T23:24:06.941Z,4.92
2022-10-19T23:26:35.863Z,4.88
2022-10-19T23:29:04.896Z,4.74
2022-10-19T23:31:34.717Z,4.82
2022-10-19T23:34:03.790Z,4.76
2022-10-19T23:36:32.510Z,4.73
2022-10-19T23:39:01.933Z,4.52
2022-10-19T23:41:30.668Z,4.59
2022-10-19T23:43:59.519Z,4.48
2022-10-19T23:46:28.265Z,4.72
2022-10-19T23:48:57.219Z,4.82
2022-10-19T23:51:25.937Z,4.83
2022-10-19T23:53:55.274Z,4.70
2022-10-19T23:56:27.481Z,4.68
2022-10-19T23:58:57.791Z,4.68
